createdAt,value
2019-03-23T08:32:52.719Z,37.80
2019-03-23T08:35:21.470Z,36.80
2019-03-23T08:37:50.113Z,35.90
2019-03-23T08:40:18.782Z,34.80
2019-03-23T08:42:47.437Z,34.60
2019-03-23T08:45:18.786Z,35.60
2019-03-23T08:47:47.360Z,35.20
2019-03-23T08:50:16.105Z,35.60
2019-03-23T08:52:44.709Z,33.20
2019-03-23T08:55:13.502Z,30.40
2019-03-23T08:57:42.074Z,29.40
2019-03-23T09:00:11.057Z,28.60
2019-03-23T09:02:39.873Z,28.40
2019-03-23T09:05:08.808Z,28.90
2019-03-23T09:07:37.399Z,28.00
2019-03-23T09:10:07.746Z,29.70
2019-03-23T09:12:36.464Z,29.00
2019-03-23T09:15:09.436Z,28.60
2019-03-23T09:17:38.021Z,28.70
2019-03-23T09:20:09.747Z,27.10
2019-03-23T09:22:38.334Z,27.60
2019-03-23T09:25:07.484Z,27.50
2019-03-23T09:27:36.152Z,28.20
2019-03-23T09:30:10.310Z,28.20
2019-03-23T09:32:38.874Z,28.50
2019-03-23T09:35:08.237Z,29.10
2019-03-23T09:37:38.040Z,27.00
2019-03-23T09:40:11.194Z,27.50
2019-03-23T09:42:38.197Z,26.80
2019-03-23T09:45:08.498Z,27.60
2019-03-23T09:47:37.653Z,27.10
2019-03-23T09:50:08.982Z,26.50
2019-03-23T09:52:37.659Z,26.60
2019-03-23T09:55:07.273Z,26.40
2019-03-23T09:57:35.945Z,26.90
2019-03-23T10:00:10.189Z,26.00
2019-03-23T10:02:38.789Z,25.80
2019-03-23T10:05:08.618Z,26.50
2019-03-23T10:07:37.217Z,26.50
2019-03-23T10:10:06.951Z,27.30
2019-03-23T10:12:35.624Z,26.70
2019-03-23T10:15:06.342Z,25.80
2019-03-23T10:17:35.209Z,25.90
2019-03-23T10:20:05.838Z,25.40
2019-03-23T10:22:34.436Z,25.00
2019-03-23T10:25:03.587Z,25.20
2019-03-23T10:27:32.229Z,26.00
2019-03-23T10:30:00.798Z,26.00
2019-03-23T10:32:29.402Z,25.10
2019-03-23T10:34:58.001Z,24.60
2019-03-23T10:37:26.614Z,24.40
2019-03-23T10:39:55.194Z,23.90
2019-03-23T10:42:23.784Z,23.70
2019-03-23T10:44:52.363Z,24.20
2019-03-23T10:47:20.995Z,23.60
2019-03-23T10:49:49.551Z,23.70
2019-03-23T10:52:18.165Z,24.60
2019-03-23T10:54:46.734Z,23.70
2019-03-23T10:57:15.354Z,24.40
2019-03-23T10:59:43.925Z,24.50
2019-03-23T11:02:12.538Z,23.20
2019-03-23T11:04:41.110Z,23.40
2019-03-23T11:07:09.721Z,22.60
2019-03-23T11:09:38.301Z,23.50
2019-03-23T11:12:06.898Z,22.80
2019-03-23T11:14:35.457Z,22.90
2019-03-23T11:17:04.061Z,23.50
2019-03-23T11:19:32.643Z,23.40
2019-03-23T11:22:01.464Z,23.50
2019-03-23T11:24:30.017Z,24.30
2019-03-23T11:26:58.691Z,24.10
2019-03-23T11:29:27.326Z,23.60
2019-03-23T11:31:55.989Z,23.80
2019-03-23T11:34:24.581Z,22.60
2019-03-23T11:36:53.186Z,22.60
2019-03-23T11:39:21.761Z,23.20
2019-03-23T11:41:50.360Z,23.20
2019-03-23T11:44:18.941Z,23.90
2019-03-23T11:46:47.555Z,23.60
2019-03-23T11:49:16.150Z,23.40
2019-03-23T11:51:44.765Z,22.40
2019-03-23T11:54:13.414Z,22.00
2019-03-23T11:56:42.037Z,21.90
2019-03-23T11:59:10.678Z,23.00
2019-03-23T12:01:39.290Z,23.60
2019-03-23T12:04:07.856Z,22.50
2019-03-23T12:06:36.507Z,21.70
2019-03-23T12:09:07.053Z,22.10
2019-03-23T12:11:35.625Z,22.10
2019-03-23T12:14:04.571Z,20.90
2019-03-23T12:16:33.233Z,22.00
2019-03-23T12:19:01.844Z,21.70
2019-03-23T12:21:30.415Z,22.50
2019-03-23T12:23:59.017Z,22.30
2019-03-23T12:26:27.601Z,20.60
2019-03-23T12:28:56.209Z,20.00
2019-03-23T12:31:24.785Z,19.90
2019-03-23T12:33:53.388Z,21.60
2019-03-23T13:11:05.578Z,37.00
2019-03-23T14:23:15.773Z,36.60
2019-03-23T14:27:13.140Z,37.80
2019-03-23T14:29:40.962Z,36.10
2019-03-23T14:32:08.830Z,35.20
2019-03-23T14:34:36.653Z,34.20
2019-03-23T14:37:05.235Z,35.20
2019-03-23T14:40:49.157Z,33.20
2019-03-23T14:43:17.138Z,29.00
2019-03-23T14:49:01.687Z,26.90
2019-03-23T14:51:29.956Z,26.70
2019-03-23T14:53:58.566Z,24.80
2019-03-23T14:56:31.727Z,23.20
2019-03-23T14:58:57.442Z,21.90
2019-03-23T15:01:25.963Z,22.00
2019-03-23T15:03:54.764Z,21.70
2019-03-23T15:06:23.334Z,21.60
2019-03-23T15:08:51.939Z,22.10
2019-03-23T15:11:20.521Z,22.10
2019-03-23T15:13:49.130Z,23.20
2019-03-23T15:16:17.718Z,22.50
2019-03-23T15:18:46.476Z,22.60
2019-03-23T15:21:15.298Z,23.10
2019-03-23T15:23:44.297Z,23.20
2019-03-23T15:26:13.049Z,23.20
2019-03-23T15:28:41.645Z,24.10
2019-03-23T15:31:10.228Z,24.10
2019-03-23T15:33:38.874Z,23.80
2019-03-23T15:36:07.484Z,24.40
2019-03-23T15:38:36.060Z,24.70
2019-03-23T15:41:04.793Z,25.30
2019-03-23T15:43:33.377Z,24.80
2019-03-23T15:46:02.050Z,24.20
2019-03-23T15:48:30.625Z,23.60
2019-03-23T15:50:59.234Z,25.90
2019-03-23T15:53:27.813Z,26.60
2019-03-23T15:55:56.417Z,25.80
2019-03-23T15:58:24.997Z,26.20
2019-03-23T16:00:53.597Z,25.90
2019-03-23T16:03:22.370Z,26.30
2019-03-23T16:05:51.062Z,26.60
2019-03-23T16:08:19.637Z,26.30
2019-03-23T16:10:48.238Z,26.90
2019-03-23T16:13:16.809Z,27.10
2019-03-23T16:15:45.413Z,26.70
2019-03-23T16:18:13.998Z,27.90
2019-03-23T16:20:42.651Z,26.60
2019-03-23T16:23:11.229Z,26.60
2019-03-23T16:25:39.855Z,27.00
2019-03-23T16:28:08.439Z,26.90
2019-03-23T16:30:37.057Z,27.50
2019-03-23T16:33:21.033Z,27.70
2019-03-23T16:35:49.852Z,27.90
2019-03-23T16:38:18.434Z,27.40
2019-03-23T16:40:47.046Z,27.80
2019-03-23T16:43:15.709Z,28.00
2019-03-23T16:45:44.297Z,27.90
2019-03-23T16:48:12.889Z,29.00
2019-03-23T16:50:41.498Z,29.30
2019-03-23T16:53:12.858Z,28.90
2019-03-23T16:55:41.690Z,29.40
2019-03-23T16:58:16.055Z,30.90
2019-03-23T17:00:40.919Z,34.20
2019-03-23T17:03:09.523Z,35.70
2019-03-23T17:05:38.302Z,36.80
2019-03-23T17:08:07.047Z,38.20
2019-03-23T17:10:35.788Z,39.20
2019-03-23T17:13:04.722Z,40.20
2019-03-23T17:15:33.766Z,40.80
2019-03-23T17:18:02.710Z,41.70
2019-03-23T17:20:31.362Z,43.40
2019-03-23T17:23:00.037Z,44.60
2019-03-23T17:25:28.700Z,45.60
2019-03-23T17:27:57.345Z,46.20
2019-03-23T17:30:26.059Z,47.30
2019-03-23T17:32:54.823Z,48.10
2019-03-23T17:35:23.454Z,49.00
2019-03-23T17:37:52.107Z,49.30
2019-03-23T17:40:20.803Z,50.00
2019-03-23T17:42:49.578Z,50.00
2019-03-23T17:45:18.253Z,50.20
2019-03-23T17:47:47.066Z,50.40
2019-03-23T17:50:15.750Z,50.90
2019-03-23T17:52:44.616Z,51.90
2019-03-23T17:55:13.410Z,52.20
2019-03-23T17:57:42.198Z,52.80
2019-03-23T18:00:11.735Z,53.00
2019-03-23T18:02:40.443Z,53.80
2019-03-23T18:05:12.054Z,54.30
2019-03-23T18:07:40.386Z,54.80
2019-03-23T18:10:09.642Z,55.10
2019-03-23T18:12:38.345Z,56.00
2019-03-23T18:15:08.963Z,56.50
2019-03-23T18:17:37.675Z,56.70
2019-03-23T18:20:08.130Z,56.90
2019-03-23T18:22:36.903Z,56.80
2019-03-23T18:25:05.953Z,56.30
2019-03-23T18:27:34.583Z,56.80
2019-03-23T18:30:04.744Z,57.10
2019-03-23T18:32:33.390Z,57.30
2019-03-23T18:35:03.186Z,57.00
2019-03-23T18:37:32.049Z,57.40
2019-03-23T18:40:00.772Z,57.40
2019-03-23T18:42:29.515Z,57.70
2019-03-23T18:44:58.138Z,57.40
2019-03-23T18:47:26.999Z,58.30
2019-03-23T18:49:55.638Z,58.60
2019-03-23T18:52:24.268Z,59.30
2019-03-23T18:54:52.908Z,59.30
2019-03-23T18:57:21.636Z,59.70
2019-03-23T18:59:50.242Z,59.40
2019-03-23T19:02:18.931Z,61.00
2019-03-23T19:04:49.660Z,61.30
2019-03-23T19:07:17.997Z,60.90
2019-03-23T19:09:46.607Z,60.60
2019-03-23T19:12:15.226Z,60.50
2019-03-23T19:14:43.904Z,61.40
2019-03-23T19:17:12.555Z,61.40
2019-03-23T19:19:41.168Z,60.90
2019-03-23T19:22:09.829Z,62.00
2019-03-23T19:24:38.475Z,61.30
2019-03-23T19:27:07.176Z,63.70
2019-03-23T19:29:35.779Z,61.40
2019-03-23T19:32:04.549Z,62.60
2019-03-23T19:34:33.231Z,63.90
2019-03-23T19:37:01.877Z,64.30
2019-03-23T19:39:30.514Z,64.90
2019-03-23T19:41:59.133Z,64.70
2019-03-23T19:44:27.778Z,65.70
2019-03-23T19:46:56.446Z,65.70
2019-03-23T19:49:25.242Z,67.00
